createdAt,value
2023-06-07T00:01:09.608Z,1.00
2023-06-07T00:06:10.221Z,1.20
2023-06-07T00:08:38.592Z,1.00
2023-06-07T00:11:09.172Z,0.90
2023-06-07T00:13:38.136Z,1.10
2023-06-07T00:16:06.795Z,1.30
2023-06-07T00:18:34.913Z,1.27
2023-06-07T00:21:03.089Z,1.20
2023-06-07T00:23:35.268Z,0.90
2023-06-07T00:26:03.439Z,1.53
2023-06-07T00:28:31.382Z,1.07
2023-06-07T00:30:59.367Z,1.10
2023-06-07T00:33:28.057Z,1.30
2023-06-07T00:35:56.937Z,1.10
2023-06-07T00:38:25.360Z,1.10
2023-06-07T00:40:54.951Z,1.10
2023-06-07T00:43:22.894Z,1.10
2023-06-07T00:45:51.067Z,1.23
2023-06-07T00:48:19.657Z,1.27
2023-06-07T00:50:48.298Z,1.30
2023-06-07T00:53:16.976Z,1.20
2023-06-07T00:55:45.258Z,1.20
2023-06-07T00:58:15.174Z,1.30
2023-06-07T01:00:43.908Z,1.13
2023-06-07T01:03:12.629Z,1.20
2023-06-07T01:05:40.856Z,1.30
2023-06-07T01:08:09.046Z,1.23
2023-06-07T01:10:37.635Z,1.30
2023-06-07T01:13:06.450Z,1.03
2023-06-07T01:15:36.153Z,1.20
2023-06-07T01:18:06.151Z,1.35
2023-06-07T01:20:37.795Z,1.40
2023-06-07T01:23:10.371Z,1.40
2023-06-07T01:25:39.774Z,1.40
2023-06-07T01:28:08.649Z,1.30
2023-06-07T01:30:41.544Z,1.30
2023-06-07T01:33:10.263Z,1.23
2023-06-07T01:35:38.634Z,1.13
2023-06-07T01:38:07.404Z,1.00
2023-06-07T01:40:36.634Z,1.30
2023-06-07T01:43:07.273Z,1.17
2023-06-07T01:45:35.503Z,1.53
2023-06-07T01:48:06.385Z,1.50
2023-06-07T01:50:34.493Z,1.40
2023-06-07T01:53:02.618Z,1.33
2023-06-07T01:55:31.507Z,1.30
2023-06-07T01:58:08.372Z,1.10
2023-06-07T02:00:48.299Z,1.10
2023-06-07T02:03:20.837Z,1.20
2023-06-07T02:05:52.456Z,0.97
2023-06-07T02:08:30.980Z,1.37
2023-06-07T02:11:04.261Z,1.20
2023-06-07T02:13:37.412Z,1.10
2023-06-07T02:16:10.124Z,1.27
2023-06-07T02:18:41.648Z,1.17
2023-06-07T02:21:10.371Z,0.90
2023-06-07T02:23:43.474Z,1.00
2023-06-07T02:26:11.732Z,1.33
2023-06-07T02:28:39.704Z,1.13
2023-06-07T02:31:09.200Z,1.27
2023-06-07T02:33:37.441Z,1.10
2023-06-07T02:36:05.797Z,1.17
2023-06-07T02:38:34.182Z,1.10
2023-06-07T02:41:02.417Z,1.40
2023-06-07T02:43:30.336Z,1.20
2023-06-07T02:45:58.633Z,1.40
2023-06-07T02:48:28.221Z,1.10
2023-06-07T02:50:56.257Z,1.25
2023-06-07T02:53:24.314Z,1.30
2023-06-07T02:55:52.409Z,1.17
2023-06-07T02:58:20.520Z,1.20
2023-06-07T03:00:51.392Z,1.30
2023-06-07T03:03:19.703Z,1.20
2023-06-07T03:05:50.815Z,1.10
2023-06-07T03:08:18.878Z,1.20
2023-06-07T03:10:46.842Z,1.13
2023-06-07T03:13:15.079Z,1.10
2023-06-07T03:15:43.687Z,1.00
2023-06-07T03:18:15.488Z,1.10
2023-06-07T03:20:44.586Z,1.00
2023-06-07T03:23:14.009Z,1.07
2023-06-07T03:25:42.093Z,1.23
2023-06-07T03:28:10.320Z,1.00
2023-06-07T03:30:38.222Z,1.00
2023-06-07T03:33:06.477Z,1.20
2023-06-07T03:35:34.628Z,0.90
2023-06-07T03:38:02.645Z,0.90
2023-06-07T03:40:32.592Z,0.83
2023-06-07T03:43:01.107Z,0.80
2023-06-07T03:45:29.121Z,0.60
2023-06-07T03:47:58.302Z,1.00
2023-06-07T03:50:26.468Z,0.90
2023-06-07T03:52:54.459Z,0.80
2023-06-07T03:55:22.399Z,0.80
2023-06-07T03:57:57.323Z,0.80
2023-06-07T04:00:28.355Z,0.70
2023-06-07T04:02:56.746Z,0.50
2023-06-07T04:05:26.574Z,0.80
2023-06-07T04:08:00.871Z,0.70
2023-06-07T04:10:28.902Z,0.73
2023-06-07T04:12:58.375Z,0.80
2023-06-07T04:15:26.418Z,0.80
2023-06-07T04:17:55.811Z,0.70
2023-06-07T04:20:24.300Z,0.97
2023-06-07T04:22:53.365Z,0.80
2023-06-07T04:25:23.262Z,0.70
2023-06-07T04:27:52.323Z,0.60
2023-06-07T04:30:21.767Z,0.67
2023-06-07T04:32:51.182Z,0.80
2023-06-07T04:35:20.666Z,0.70
2023-06-07T04:37:49.098Z,1.13
2023-06-07T04:40:17.377Z,0.80
2023-06-07T04:42:47.792Z,0.80
2023-06-07T04:47:46.426Z,0.70
2023-06-07T04:50:14.904Z,0.70
2023-06-07T04:52:45.115Z,0.70
2023-06-07T04:55:15.498Z,0.55
2023-06-07T05:00:15.465Z,0.50
2023-06-07T05:02:45.498Z,0.47
2023-06-07T05:05:14.793Z,0.50
2023-06-07T05:07:43.466Z,0.60
2023-06-07T05:10:12.893Z,0.37
2023-06-07T05:12:42.034Z,0.57
2023-06-07T05:15:11.169Z,0.50
2023-06-07T05:17:46.405Z,0.50
2023-06-07T05:20:14.970Z,0.57
2023-06-07T05:22:43.819Z,0.50
2023-06-07T05:25:13.161Z,0.60
2023-06-07T05:27:41.685Z,0.50
2023-06-07T05:30:10.788Z,0.47
2023-06-07T05:32:39.115Z,0.43
2023-06-07T05:35:09.657Z,0.43
2023-06-07T05:37:39.168Z,0.50
2023-06-07T05:40:09.797Z,0.80
2023-06-07T05:42:39.755Z,0.30
2023-06-07T05:45:08.769Z,0.30
2023-06-07T05:47:39.420Z,0.60
2023-06-07T05:50:11.248Z,0.40
2023-06-07T05:52:41.611Z,0.50
2023-06-07T05:57:38.490Z,0.40
2023-06-07T06:00:11.412Z,0.50
2023-06-07T06:02:39.787Z,0.50
2023-06-07T06:05:10.122Z,0.68
2023-06-07T06:07:38.329Z,0.60
2023-06-07T06:10:07.567Z,0.50
2023-06-07T06:12:35.802Z,0.40
2023-06-07T06:15:03.962Z,0.43
2023-06-07T06:17:32.304Z,0.50
2023-06-07T06:20:00.319Z,0.40
2023-06-07T06:22:29.811Z,0.50
2023-06-07T06:24:58.351Z,0.75
2023-06-07T06:27:26.443Z,0.40
2023-06-07T06:29:54.549Z,0.50
2023-06-07T06:32:22.705Z,0.57
2023-06-07T06:34:50.921Z,0.50
2023-06-07T06:37:19.232Z,0.60
2023-06-07T06:39:49.466Z,0.55
2023-06-07T06:42:17.438Z,0.60
2023-06-07T06:44:45.555Z,0.60
2023-06-07T06:47:13.715Z,0.55
2023-06-07T06:49:41.914Z,0.60
2023-06-07T06:52:10.080Z,0.40
2023-06-07T06:54:38.115Z,0.50
2023-06-07T06:57:09.412Z,0.70
2023-06-07T06:59:41.907Z,0.50
2023-06-07T07:02:10.203Z,0.65
2023-06-07T07:04:38.357Z,0.52
2023-06-07T07:07:07.154Z,0.70
2023-06-07T07:09:35.273Z,0.50
2023-06-07T07:12:03.248Z,0.60
2023-06-07T07:14:32.740Z,0.60
2023-06-07T07:17:00.992Z,0.57
2023-06-07T07:19:29.098Z,0.63
2023-06-07T07:21:59.955Z,0.60
2023-06-07T07:24:28.017Z,0.80
2023-06-07T07:26:55.883Z,0.90
2023-06-07T07:29:23.952Z,0.60
2023-06-07T07:31:53.437Z,0.70
2023-06-07T07:34:21.457Z,0.50
2023-06-07T07:36:51.427Z,0.60
2023-06-07T07:39:20.114Z,0.70
2023-06-07T07:41:48.104Z,0.70
2023-06-07T07:44:16.196Z,0.70
2023-06-07T07:46:44.380Z,0.60
2023-06-07T07:49:13.706Z,0.70
2023-06-07T07:51:43.755Z,1.10
2023-06-07T07:54:11.716Z,0.50
2023-06-07T07:56:39.872Z,0.63
2023-06-07T07:59:08.154Z,0.88
2023-06-07T08:01:36.487Z,0.68
2023-06-07T08:04:04.588Z,0.65
2023-06-07T08:06:34.435Z,0.77
2023-06-07T08:09:02.542Z,0.63
2023-06-07T08:11:30.665Z,0.65
2023-06-07T08:13:58.848Z,0.90
2023-06-07T08:16:27.276Z,0.57
2023-06-07T08:18:58.324Z,0.60
2023-06-07T08:21:27.239Z,0.60
2023-06-07T08:23:58.180Z,0.70
2023-06-07T08:26:26.252Z,0.77
2023-06-07T08:28:54.286Z,0.63
2023-06-07T08:31:23.624Z,0.80
2023-06-07T08:33:51.726Z,0.70
2023-06-07T08:36:20.035Z,0.60
2023-06-07T08:38:48.173Z,0.60
2023-06-07T08:41:17.641Z,0.70
2023-06-07T08:43:48.878Z,0.60
2023-06-07T08:46:18.993Z,0.60
2023-06-07T08:51:23.467Z,0.60
2023-06-07T08:53:57.290Z,0.80
2023-06-07T08:56:28.482Z,0.80
2023-06-07T08:58:57.287Z,0.77
2023-06-07T09:01:25.972Z,0.82
2023-06-07T09:03:54.344Z,0.60
2023-06-07T09:06:23.737Z,0.98
2023-06-07T09:08:52.146Z,0.60
2023-06-07T09:11:20.405Z,0.70
2023-06-07T09:13:50.074Z,0.60
2023-06-07T09:16:19.621Z,0.70
2023-06-07T09:18:54.735Z,0.85
2023-06-07T09:21:24.406Z,0.85
2023-06-07T09:23:53.553Z,0.60
2023-06-07T09:26:24.272Z,0.50
2023-06-07T09:28:54.056Z,0.63
2023-06-07T09:31:31.252Z,0.70
2023-06-07T09:33:59.594Z,0.55
2023-06-07T09:36:30.099Z,0.63
2023-06-07T09:38:58.483Z,0.60
2023-06-07T09:41:33.697Z,1.23
2023-06-07T09:44:03.470Z,0.80
2023-06-07T09:46:37.584Z,0.70
2023-06-07T09:49:05.792Z,0.68
2023-06-07T09:51:41.441Z,0.60
2023-06-07T09:54:10.762Z,0.68
2023-06-07T09:56:41.555Z,0.60
2023-06-07T09:59:15.328Z,0.75
2023-06-07T10:01:46.994Z,0.70
2023-06-07T10:04:20.480Z,0.70
2023-06-07T10:06:53.571Z,0.80
2023-06-07T10:09:24.560Z,0.70
2023-06-07T10:11:56.824Z,0.70
2023-06-07T10:14:34.518Z,0.70
2023-06-07T10:17:06.676Z,0.60
2023-06-07T10:19:39.004Z,0.70
2023-06-07T10:22:09.517Z,0.60
2023-06-07T10:24:47.821Z,0.60
2023-06-07T10:27:18.595Z,0.63
2023-06-07T10:30:03.370Z,0.68
2023-06-07T10:32:34.927Z,1.00
2023-06-07T10:35:05.170Z,0.70
2023-06-07T10:37:35.067Z,0.93
2023-06-07T10:40:07.318Z,0.73
2023-06-07T10:42:36.197Z,0.85
2023-06-07T10:45:06.370Z,0.80
2023-06-07T10:47:34.607Z,0.50
2023-06-07T10:50:09.245Z,0.68
2023-06-07T10:52:57.028Z,0.80
2023-06-07T10:55:32.619Z,0.70
2023-06-07T10:58:01.634Z,0.60
2023-06-07T11:00:34.342Z,0.70
2023-06-07T11:03:45.278Z,0.70
2023-06-07T11:06:14.090Z,0.70
2023-06-07T11:08:42.387Z,0.82
2023-06-07T11:11:52.818Z,0.80
2023-06-07T11:14:23.525Z,0.60
2023-06-07T11:16:53.166Z,0.70
2023-06-07T11:19:24.252Z,0.60
2023-06-07T11:22:11.068Z,0.70
2023-06-07T11:24:39.951Z,0.65
2023-06-07T11:27:15.513Z,0.90
2023-06-07T11:29:45.152Z,0.70
2023-06-07T11:32:14.808Z,0.70
2023-06-07T11:34:43.502Z,0.80
2023-06-07T11:37:17.899Z,0.63
2023-06-07T11:39:46.823Z,0.70
2023-06-07T11:42:15.069Z,0.68
2023-06-07T11:44:43.678Z,0.70
2023-06-07T11:47:12.030Z,0.73
2023-06-07T11:49:42.362Z,0.60
2023-06-07T11:52:11.075Z,0.80
2023-06-07T11:54:45.475Z,0.70
2023-06-07T11:57:13.604Z,0.90
2023-06-07T11:59:43.548Z,0.80
2023-06-07T12:02:14.054Z,0.80
2023-06-07T12:04:45.770Z,0.60
2023-06-07T12:07:21.059Z,0.60
2023-06-07T12:09:52.086Z,0.60
2023-06-07T12:12:20.458Z,0.50
2023-06-07T12:14:52.564Z,0.60
2023-06-07T12:17:22.707Z,0.70
2023-06-07T12:19:52.268Z,0.70
2023-06-07T12:22:20.334Z,0.80
2023-06-07T12:24:49.013Z,0.70
2023-06-07T12:27:26.581Z,0.70
2023-06-07T12:29:55.771Z,0.52
2023-06-07T12:32:24.176Z,0.87
2023-06-07T12:34:53.738Z,0.52
2023-06-07T12:37:21.723Z,0.80
2023-06-07T12:39:53.094Z,0.60
2023-06-07T12:42:21.194Z,0.50
2023-06-07T12:44:50.114Z,0.60
2023-06-07T12:47:21.347Z,0.70
2023-06-07T12:49:49.500Z,0.50
2023-06-07T12:52:19.378Z,0.70
2023-06-07T12:54:47.599Z,0.70
2023-06-07T12:57:15.704Z,0.52
2023-06-07T12:59:43.654Z,0.70
2023-06-07T13:02:11.784Z,0.80
2023-06-07T13:04:40.303Z,0.75
2023-06-07T13:07:08.854Z,0.60
2023-06-07T13:09:38.836Z,0.65
2023-06-07T13:14:36.146Z,0.57
2023-06-07T13:17:04.296Z,0.70
2023-06-07T13:19:32.493Z,0.60
2023-06-07T13:22:00.686Z,0.70
2023-06-07T13:24:28.643Z,0.60
2023-06-07T13:26:58.197Z,0.50
2023-06-07T13:29:26.434Z,0.70
2023-06-07T13:31:54.446Z,0.50
2023-06-07T13:34:22.620Z,0.50
2023-06-07T13:36:50.661Z,0.50
2023-06-07T13:39:19.735Z,0.50
2023-06-07T13:41:48.130Z,0.77
2023-06-07T13:44:19.083Z,0.68
2023-06-07T13:46:47.429Z,0.65
2023-06-07T13:49:16.085Z,0.50
2023-06-07T13:51:44.260Z,0.70
2023-06-07T13:54:12.286Z,0.80
2023-06-07T13:56:40.343Z,0.60
2023-06-07T13:59:08.396Z,0.55
2023-06-07T14:01:38.876Z,1.27
2023-06-07T14:04:08.758Z,0.68
2023-06-07T14:06:38.541Z,0.80
2023-06-07T14:09:07.412Z,0.50
2023-06-07T14:11:38.920Z,0.50
2023-06-07T14:14:07.050Z,0.50
2023-06-07T14:16:35.080Z,0.60
2023-06-07T14:19:06.544Z,0.60
2023-06-07T14:21:35.756Z,0.80
2023-06-07T14:24:04.308Z,0.90
2023-06-07T14:26:32.497Z,0.80
2023-06-07T14:29:03.600Z,0.77
2023-06-07T14:31:33.532Z,0.68
2023-06-07T14:34:01.800Z,0.68
2023-06-07T14:36:31.169Z,0.60
2023-06-07T14:39:01.363Z,0.75
2023-06-07T14:43:57.232Z,0.70
2023-06-07T14:46:25.384Z,0.80
2023-06-07T14:48:53.601Z,0.70
2023-06-07T14:51:24.449Z,0.60
2023-06-07T14:53:54.159Z,0.55
2023-06-07T14:56:22.738Z,0.70
2023-06-07T14:58:50.690Z,0.55
2023-06-07T15:01:18.801Z,0.70
2023-06-07T15:03:47.019Z,0.60
2023-06-07T15:06:15.001Z,0.75
2023-06-07T15:08:43.337Z,0.80
2023-06-07T15:11:12.808Z,0.80
2023-06-07T15:13:41.057Z,0.60
2023-06-07T15:16:09.231Z,0.55
2023-06-07T15:18:37.221Z,0.57
2023-06-07T15:21:05.228Z,0.75
2023-06-07T15:23:33.733Z,0.75
2023-06-07T15:26:01.716Z,0.82
2023-06-07T15:28:31.316Z,0.60
2023-06-07T15:30:59.858Z,0.68
2023-06-07T15:33:27.898Z,0.77
2023-06-07T15:35:55.917Z,0.80
2023-06-07T15:38:24.489Z,0.80
2023-06-07T15:40:52.481Z,0.73
2023-06-07T15:43:20.695Z,0.73
2023-06-07T15:45:50.909Z,0.80
2023-06-07T15:50:47.418Z,0.77
2023-06-07T15:53:18.425Z,0.70
2023-06-07T15:55:46.885Z,0.75
2023-06-07T15:58:14.974Z,0.75
2023-06-07T16:00:47.433Z,0.85
2023-06-07T16:03:17.428Z,0.88
2023-06-07T16:05:45.448Z,0.85
2023-06-07T16:08:14.692Z,0.70
2023-06-07T16:10:43.077Z,0.95
2023-06-07T16:13:11.154Z,0.60
2023-06-07T16:15:39.489Z,0.60
2023-06-07T16:18:07.998Z,0.90
2023-06-07T16:20:37.476Z,0.60
2023-06-07T16:23:05.506Z,0.77
2023-06-07T16:25:33.748Z,1.02
2023-06-07T16:28:01.820Z,0.77
2023-06-07T16:30:29.903Z,0.63
2023-06-07T16:32:58.373Z,0.60
2023-06-07T16:35:26.394Z,0.68
2023-06-07T16:37:55.948Z,0.73
2023-06-07T16:40:24.236Z,0.63
2023-06-07T16:42:52.121Z,0.65
2023-06-07T16:45:20.485Z,0.80
2023-06-07T16:47:49.607Z,0.60
2023-06-07T16:50:17.656Z,0.80
2023-06-07T16:52:45.685Z,0.80
2023-06-07T16:55:18.037Z,0.60
2023-06-07T16:57:46.021Z,0.80
2023-06-07T17:00:14.924Z,0.75
2023-06-07T17:02:43.131Z,0.80
2023-06-07T17:05:11.791Z,0.75
2023-06-07T17:07:39.809Z,0.52
2023-06-07T17:10:09.695Z,0.80
2023-06-07T17:12:39.201Z,0.70
2023-06-07T17:15:08.603Z,0.90
2023-06-07T17:17:36.698Z,0.63
2023-06-07T17:20:06.084Z,0.68
2023-06-07T17:22:35.807Z,0.68
2023-06-07T17:25:03.858Z,0.73
2023-06-07T17:27:32.077Z,0.70
2023-06-07T17:30:01.888Z,0.85
2023-06-07T17:32:29.892Z,0.80
2023-06-07T17:34:57.948Z,0.90
2023-06-07T17:37:26.056Z,0.82
2023-06-07T17:39:54.988Z,1.08
2023-06-07T17:42:24.788Z,0.90
2023-06-07T17:44:53.734Z,0.70
2023-06-07T17:47:24.503Z,0.63
2023-06-07T17:49:52.466Z,0.82
2023-06-07T17:52:23.580Z,0.95
2023-06-07T17:54:51.932Z,0.70
2023-06-07T17:57:19.888Z,0.65
2023-06-07T17:59:49.037Z,0.80
2023-06-07T18:02:17.182Z,0.70
2023-06-07T18:04:46.880Z,0.80
2023-06-07T18:07:15.193Z,0.75
2023-06-07T18:09:45.258Z,0.70
2023-06-07T18:12:14.308Z,0.80
2023-06-07T18:14:42.616Z,0.80
2023-06-07T18:17:11.494Z,0.70
2023-06-07T18:19:39.765Z,0.70
2023-06-07T18:22:12.362Z,0.50
2023-06-07T18:24:40.871Z,0.70
2023-06-07T18:27:09.633Z,0.65
2023-06-07T18:29:37.868Z,0.70
2023-06-07T18:32:08.226Z,0.80
2023-06-07T18:37:05.694Z,0.57
2023-06-07T18:39:36.056Z,0.80
2023-06-07T18:42:04.286Z,0.50
2023-06-07T18:44:33.286Z,0.70
2023-06-07T18:47:03.148Z,0.65
2023-06-07T18:49:31.700Z,0.75
2023-06-07T18:52:01.056Z,0.60
2023-06-07T18:54:29.040Z,0.60
2023-06-07T18:56:58.724Z,0.65
2023-06-07T18:59:26.849Z,0.55
2023-06-07T19:01:56.418Z,0.50
2023-06-07T19:04:25.096Z,0.85
2023-06-07T19:06:54.747Z,0.75
2023-06-07T19:09:22.684Z,0.70
2023-06-07T19:11:50.873Z,0.45
2023-06-07T19:14:20.545Z,0.65
2023-06-07T19:16:48.734Z,0.55
2023-06-07T19:19:16.914Z,0.57
2023-06-07T19:21:45.058Z,0.70
2023-06-07T19:24:13.297Z,0.70
2023-06-07T19:26:41.377Z,0.60
2023-06-07T19:29:09.581Z,0.75
2023-06-07T19:31:38.925Z,0.80
2023-06-07T19:34:09.116Z,0.80
2023-06-07T19:36:38.697Z,0.70
2023-06-07T19:39:06.704Z,0.88
2023-06-07T19:41:34.964Z,0.95
2023-06-07T19:44:02.912Z,0.50
2023-06-07T19:46:30.976Z,0.60
2023-06-07T19:49:01.553Z,0.80
2023-06-07T19:51:29.671Z,0.77
2023-06-07T19:53:58.213Z,0.70
2023-06-07T19:56:27.111Z,0.63
2023-06-07T19:58:55.361Z,0.68
2023-06-07T20:01:23.479Z,0.88
2023-06-07T20:04:09.200Z,0.83
2023-06-07T20:06:38.324Z,0.88
2023-06-07T20:09:11.628Z,0.70
2023-06-07T20:11:39.577Z,0.60
2023-06-07T20:14:07.540Z,0.87
2023-06-07T20:16:35.890Z,0.80
2023-06-07T20:19:07.258Z,0.70
2023-06-07T20:21:35.270Z,0.83
2023-06-07T20:24:03.702Z,0.70
2023-06-07T20:26:31.724Z,0.70
2023-06-07T20:29:02.446Z,0.60
2023-06-07T20:31:30.904Z,0.83
2023-06-07T20:33:58.925Z,0.90
2023-06-07T20:36:28.224Z,0.50
2023-06-07T20:38:56.560Z,0.50
2023-06-07T20:41:24.542Z,0.73
2023-06-07T20:43:52.409Z,0.80
2023-06-07T20:46:20.760Z,0.70
2023-06-07T20:48:48.822Z,1.00
2023-06-07T20:51:17.075Z,0.63
2023-06-07T20:53:46.685Z,0.70
2023-06-07T20:56:14.739Z,0.80
2023-06-07T20:58:42.853Z,0.80
2023-06-07T21:01:11.339Z,0.70
2023-06-07T21:03:40.832Z,0.60
2023-06-07T21:06:09.175Z,0.70
2023-06-07T21:08:37.585Z,0.80
2023-06-07T21:11:07.243Z,0.80
2023-06-07T21:13:35.556Z,0.77
2023-06-07T21:16:04.619Z,0.83
2023-06-07T21:18:32.640Z,0.50
2023-06-07T21:21:00.654Z,0.77
2023-06-07T21:23:28.834Z,0.90
2023-06-07T21:25:57.055Z,0.60
2023-06-07T21:28:26.532Z,0.60
2023-06-07T21:30:54.700Z,0.70
2023-06-07T21:33:22.883Z,0.50
2023-06-07T21:35:50.834Z,0.70
2023-06-07T21:38:19.003Z,0.80
2023-06-07T21:40:47.032Z,0.80
2023-06-07T21:43:14.997Z,0.63
2023-06-07T21:45:44.501Z,0.77
2023-06-07T21:48:12.652Z,0.70
2023-06-07T21:50:40.860Z,0.70
2023-06-07T21:53:09.023Z,0.80
2023-06-07T21:55:37.041Z,0.67
2023-06-07T21:58:05.063Z,0.67
2023-06-07T22:00:33.037Z,0.80
2023-06-07T22:03:02.405Z,0.70
2023-06-07T22:05:30.585Z,0.70
2023-06-07T22:07:58.684Z,0.90
2023-06-07T22:10:26.732Z,0.87
2023-06-07T22:12:55.495Z,0.73
2023-06-07T22:15:26.381Z,0.87
2023-06-07T22:17:55.309Z,1.00
2023-06-07T22:20:26.187Z,0.40
2023-06-07T22:22:54.275Z,0.87
2023-06-07T22:25:39.316Z,0.77
2023-06-07T22:28:10.903Z,0.70
2023-06-07T22:30:41.078Z,0.80
2023-06-07T22:33:10.489Z,0.70
2023-06-07T22:35:40.993Z,0.70
2023-06-07T22:38:13.317Z,1.07
2023-06-07T22:40:43.964Z,0.80
2023-06-07T22:45:39.688Z,1.00
2023-06-07T22:48:11.194Z,0.80
2023-06-07T22:50:43.156Z,0.80
2023-06-07T22:53:14.012Z,0.70
2023-06-07T22:55:43.093Z,0.60
2023-06-07T22:58:11.332Z,0.77
2023-06-07T23:00:41.851Z,1.00
2023-06-07T23:03:10.934Z,0.83
2023-06-07T23:05:40.498Z,1.00
2023-06-07T23:08:11.194Z,0.70
2023-06-07T23:10:39.158Z,1.20
2023-06-07T23:13:09.930Z,0.83
2023-06-07T23:15:42.930Z,0.80
2023-06-07T23:18:12.573Z,0.90
2023-06-07T23:20:42.847Z,0.70
2023-06-07T23:23:13.695Z,0.90
2023-06-07T23:25:42.035Z,0.80
2023-06-07T23:28:09.945Z,0.87
2023-06-07T23:30:38.661Z,0.90
2023-06-07T23:33:08.712Z,0.90
2023-06-07T23:35:36.870Z,1.00
2023-06-07T23:38:06.318Z,0.80
2023-06-07T23:40:34.511Z,0.80
2023-06-07T23:43:03.476Z,0.90
2023-06-07T23:45:31.881Z,0.90
2023-06-07T23:48:07.355Z,1.10
2023-06-07T23:50:35.807Z,0.90
2023-06-07T23:53:07.698Z,1.00
2023-06-07T23:55:37.637Z,0.73
2023-06-07T23:58:06.930Z,0.90
